sensor_id;sensor_type;location;lat;lon;timestamp;P1;durP1;ratioP1;P2;durP2;ratioP2
17854;SDS011;9053;53.358;6.382;2024-01-07T00:00:15;10.60;;;6.47;;
17854;SDS011;9053;53.358;6.382;2024-01-07T00:02:50;12.40;;;6.87;;
17854;SDS011;9053;53.358;6.382;2024-01-07T00:05:25;13.80;;;6.37;;
17854;SDS011;9053;53.358;6.382;2024-01-07T00:08:00;13.87;;;7.20;;
17854;SDS011;9053;53.358;6.382;2024-01-07T00:10:35;13.23;;;6.93;;
17854;SDS011;9053;53.358;6.382;2024-01-07T00:13:08;10.47;;;6.57;;
17854;SDS011;9053;53.358;6.382;2024-01-07T00:15:38;9.43;;;6.47;;
17854;SDS011;9053;53.358;6.382;2024-01-07T00:18:12;9.50;;;6.07;;
17854;SDS011;9053;53.358;6.382;2024-01-07T00:20:42;11.40;;;6.27;;
17854;SDS011;9053;53.358;6.382;2024-01-07T00:23:12;10.07;;;5.97;;
17854;SDS011;9053;53.358;6.382;2024-01-07T00:25:45;7.97;;;5.67;;
17854;SDS011;9053;53.358;6.382;2024-01-07T00:28:15;12.20;;;6.40;;
17854;SDS011;9053;53.358;6.382;2024-01-07T00:30:45;9.63;;;5.33;;
17854;SDS011;9053;53.358;6.382;2024-01-07T00:33:17;7.57;;;4.23;;
17854;SDS011;9053;53.358;6.382;2024-01-07T00:35:55;6.87;;;4.70;;
17854;SDS011;9053;53.358;6.382;2024-01-07T00:38:32;8.10;;;4.77;;
17854;SDS011;9053;53.358;6.382;2024-01-07T00:41:07;8.67;;;5.17;;
17854;SDS011;9053;53.358;6.382;2024-01-07T00:43:40;11.23;;;5.60;;
17854;SDS011;9053;53.358;6.382;2024-01-07T00:46:10;11.07;;;5.40;;
17854;SDS011;9053;53.358;6.382;2024-01-07T00:48:44;10.00;;;5.63;;
17854;SDS011;9053;53.358;6.382;2024-01-07T00:51:13;8.30;;;5.47;;
17854;SDS011;9053;53.358;6.382;2024-01-07T00:53:43;9.87;;;5.30;;
17854;SDS011;9053;53.358;6.382;2024-01-07T00:56:16;8.33;;;5.27;;
17854;SDS011;9053;53.358;6.382;2024-01-07T00:58:46;8.17;;;5.27;;
17854;SDS011;9053;53.358;6.382;2024-01-07T01:01:18;10.37;;;5.23;;
17854;SDS011;9053;53.358;6.382;2024-01-07T01:03:48;10.30;;;6.20;;
17854;SDS011;9053;53.358;6.382;2024-01-07T01:06:18;13.07;;;6.60;;
17854;SDS011;9053;53.358;6.382;2024-01-07T01:08:49;11.43;;;6.73;;
17854;SDS011;9053;53.358;6.382;2024-01-07T01:11:21;10.97;;;6.03;;
17854;SDS011;9053;53.358;6.382;2024-01-07T01:13:52;12.43;;;6.27;;
17854;SDS011;9053;53.358;6.382;2024-01-07T01:16:22;10.37;;;6.00;;
17854;SDS011;9053;53.358;6.382;2024-01-07T01:18:52;10.77;;;6.10;;
17854;SDS011;9053;53.358;6.382;2024-01-07T01:21:22;11.27;;;5.80;;
17854;SDS011;9053;53.358;6.382;2024-01-07T01:23:52;13.80;;;6.27;;
17854;SDS011;9053;53.358;6.382;2024-01-07T01:26:28;10.60;;;5.90;;
17854;SDS011;9053;53.358;6.382;2024-01-07T01:28:58;10.93;;;5.77;;
17854;SDS011;9053;53.358;6.382;2024-01-07T01:31:28;10.10;;;5.50;;
17854;SDS011;9053;53.358;6.382;2024-01-07T01:33:58;11.10;;;6.40;;
17854;SDS011;9053;53.358;6.382;2024-01-07T01:36:30;11.83;;;6.00;;
17854;SDS011;9053;53.358;6.382;2024-01-07T01:39:05;11.57;;;5.87;;
17854;SDS011;9053;53.358;6.382;2024-01-07T01:41:38;10.37;;;6.13;;
17854;SDS011;9053;53.358;6.382;2024-01-07T01:44:09;9.20;;;4.53;;
17854;SDS011;9053;53.358;6.382;2024-01-07T01:46:39;10.37;;;5.17;;
17854;SDS011;9053;53.358;6.382;2024-01-07T01:49:09;9.37;;;5.67;;
17854;SDS011;9053;53.358;6.382;2024-01-07T01:51:42;10.93;;;5.67;;
17854;SDS011;9053;53.358;6.382;2024-01-07T01:54:19;15.50;;;6.47;;
17854;SDS011;9053;53.358;6.382;2024-01-07T01:56:53;8.53;;;5.40;;
17854;SDS011;9053;53.358;6.382;2024-01-07T01:59:26;12.27;;;6.33;;
17854;SDS011;9053;53.358;6.382;2024-01-07T02:01:58;10.70;;;6.13;;
17854;SDS011;9053;53.358;6.382;2024-01-07T02:04:33;10.47;;;6.13;;
17854;SDS011;9053;53.358;6.382;2024-01-07T02:07:11;9.60;;;5.30;;
17854;SDS011;9053;53.358;6.382;2024-01-07T02:09:41;10.80;;;5.70;;
17854;SDS011;9053;53.358;6.382;2024-01-07T02:12:14;8.73;;;5.00;;
17854;SDS011;9053;53.358;6.382;2024-01-07T02:14:44;10.77;;;4.80;;
17854;SDS011;9053;53.358;6.382;2024-01-07T02:17:16;5.73;;;3.37;;
17854;SDS011;9053;53.358;6.382;2024-01-07T02:19:46;6.80;;;3.97;;
17854;SDS011;9053;53.358;6.382;2024-01-07T02:22:16;4.87;;;3.20;;
17854;SDS011;9053;53.358;6.382;2024-01-07T02:24:52;8.47;;;4.80;;
17854;SDS011;9053;53.358;6.382;2024-01-07T02:27:21;6.97;;;3.97;;
17854;SDS011;9053;53.358;6.382;2024-01-07T02:29:51;7.10;;;3.80;;
17854;SDS011;9053;53.358;6.382;2024-01-07T02:32:21;7.10;;;4.10;;
17854;SDS011;9053;53.358;6.382;2024-01-07T02:34:52;6.23;;;3.30;;
17854;SDS011;9053;53.358;6.382;2024-01-07T02:37:23;8.40;;;4.07;;
17854;SDS011;9053;53.358;6.382;2024-01-07T02:39:55;5.23;;;3.60;;
17854;SDS011;9053;53.358;6.382;2024-01-07T02:42:27;5.23;;;3.63;;
17854;SDS011;9053;53.358;6.382;2024-01-07T02:44:57;5.23;;;3.60;;
17854;SDS011;9053;53.358;6.382;2024-01-07T02:47:27;5.87;;;3.70;;
17854;SDS011;9053;53.358;6.382;2024-01-07T02:49:57;5.77;;;3.37;;
17854;SDS011;9053;53.358;6.382;2024-01-07T02:52:27;4.67;;;3.10;;
17854;SDS011;9053;53.358;6.382;2024-01-07T02:54:59;4.57;;;3.30;;
17854;SDS011;9053;53.358;6.382;2024-01-07T02:57:31;5.17;;;3.20;;
17854;SDS011;9053;53.358;6.382;2024-01-07T03:00:01;5.00;;;3.30;;
17854;SDS011;9053;53.358;6.382;2024-01-07T03:02:32;7.70;;;3.70;;
17854;SDS011;9053;53.358;6.382;2024-01-07T03:05:02;4.87;;;3.30;;
17854;SDS011;9053;53.358;6.382;2024-01-07T03:07:32;4.97;;;3.60;;
17854;SDS011;9053;53.358;6.382;2024-01-07T03:10:05;6.27;;;3.53;;
17854;SDS011;9053;53.358;6.382;2024-01-07T03:12:36;4.43;;;3.13;;
17854;SDS011;9053;53.358;6.382;2024-01-07T03:15:08;4.30;;;3.00;;
17854;SDS011;9053;53.358;6.382;2024-01-07T03:17:42;4.80;;;3.30;;
17854;SDS011;9053;53.358;6.382;2024-01-07T03:20:16;4.73;;;3.13;;
17854;SDS011;9053;53.358;6.382;2024-01-07T03:22:46;2.93;;;2.30;;
17854;SDS011;9053;53.358;6.382;2024-01-07T03:25:19;3.77;;;2.80;;
17854;SDS011;9053;53.358;6.382;2024-01-07T03:27:49;6.20;;;2.90;;
17854;SDS011;9053;53.358;6.382;2024-01-07T03:30:19;4.33;;;2.50;;
17854;SDS011;9053;53.358;6.382;2024-01-07T03:32:49;5.97;;;2.80;;
17854;SDS011;9053;53.358;6.382;2024-01-07T03:35:22;4.50;;;2.73;;
17854;SDS011;9053;53.358;6.382;2024-01-07T03:37:52;5.53;;;2.53;;
17854;SDS011;9053;53.358;6.382;2024-01-07T03:40:25;3.57;;;2.30;;
17854;SDS011;9053;53.358;6.382;2024-01-07T03:42:55;3.47;;;2.80;;
17854;SDS011;9053;53.358;6.382;2024-01-07T03:45:25;4.37;;;2.90;;
17854;SDS011;9053;53.358;6.382;2024-01-07T03:47:55;4.93;;;3.00;;
17854;SDS011;9053;53.358;6.382;2024-01-07T03:50:25;2.87;;;2.57;;
17854;SDS011;9053;53.358;6.382;2024-01-07T03:52:55;6.07;;;2.70;;
17854;SDS011;9053;53.358;6.382;2024-01-07T03:55:29;5.20;;;3.00;;
17854;SDS011;9053;53.358;6.382;2024-01-07T03:58:00;5.73;;;3.10;;
17854;SDS011;9053;53.358;6.382;2024-01-07T04:00:30;4.83;;;2.60;;
17854;SDS011;9053;53.358;6.382;2024-01-07T04:03:00;3.87;;;2.17;;
17854;SDS011;9053;53.358;6.382;2024-01-07T04:05:32;3.40;;;2.63;;
17854;SDS011;9053;53.358;6.382;2024-01-07T04:08:03;3.23;;;2.10;;
17854;SDS011;9053;53.358;6.382;2024-01-07T04:10:40;3.60;;;2.13;;
17854;SDS011;9053;53.358;6.382;2024-01-07T04:13:10;4.40;;;2.60;;
17854;SDS011;9053;53.358;6.382;2024-01-07T04:15:40;4.07;;;2.37;;
17854;SDS011;9053;53.358;6.382;2024-01-07T04:18:10;4.20;;;2.50;;
17854;SDS011;9053;53.358;6.382;2024-01-07T04:20:41;4.97;;;2.40;;
17854;SDS011;9053;53.358;6.382;2024-01-07T04:23:16;5.80;;;2.63;;
17854;SDS011;9053;53.358;6.382;2024-01-07T04:25:49;3.70;;;2.40;;
17854;SDS011;9053;53.358;6.382;2024-01-07T04:28:19;3.43;;;2.17;;
17854;SDS011;9053;53.358;6.382;2024-01-07T04:30:49;3.30;;;2.60;;
17854;SDS011;9053;53.358;6.382;2024-01-07T04:33:22;3.80;;;2.37;;
17854;SDS011;9053;53.358;6.382;2024-01-07T04:35:51;5.50;;;2.50;;
17854;SDS011;9053;53.358;6.382;2024-01-07T04:38:24;4.10;;;2.20;;
17854;SDS011;9053;53.358;6.382;2024-01-07T04:40:57;3.77;;;2.10;;
17854;SDS011;9053;53.358;6.382;2024-01-07T04:43:26;6.47;;;2.50;;
17854;SDS011;9053;53.358;6.382;2024-01-07T04:45:56;3.37;;;2.53;;
17854;SDS011;9053;53.358;6.382;2024-01-07T04:48:26;3.80;;;2.20;;
17854;SDS011;9053;53.358;6.382;2024-01-07T04:50:56;5.57;;;2.20;;
17854;SDS011;9053;53.358;6.382;2024-01-07T04:53:29;3.57;;;2.10;;
17854;SDS011;9053;53.358;6.382;2024-01-07T04:56:02;5.30;;;2.10;;
17854;SDS011;9053;53.358;6.382;2024-01-07T04:58:34;2.53;;;1.70;;
17854;SDS011;9053;53.358;6.382;2024-01-07T05:01:06;3.23;;;2.27;;
17854;SDS011;9053;53.358;6.382;2024-01-07T05:03:37;4.03;;;2.40;;
17854;SDS011;9053;53.358;6.382;2024-01-07T05:06:08;2.70;;;1.93;;
17854;SDS011;9053;53.358;6.382;2024-01-07T05:08:39;2.50;;;1.90;;
17854;SDS011;9053;53.358;6.382;2024-01-07T05:11:13;2.50;;;1.97;;
17854;SDS011;9053;53.358;6.382;2024-01-07T05:13:43;2.57;;;1.90;;
17854;SDS011;9053;53.358;6.382;2024-01-07T05:16:17;2.67;;;1.70;;
17854;SDS011;9053;53.358;6.382;2024-01-07T05:18:48;3.43;;;1.90;;
17854;SDS011;9053;53.358;6.382;2024-01-07T05:21:18;2.83;;;1.80;;
17854;SDS011;9053;53.358;6.382;2024-01-07T05:23:48;5.80;;;1.90;;
17854;SDS011;9053;53.358;6.382;2024-01-07T05:26:21;3.43;;;1.73;;
17854;SDS011;9053;53.358;6.382;2024-01-07T05:28:51;2.23;;;1.40;;
17854;SDS011;9053;53.358;6.382;2024-01-07T05:31:21;2.80;;;1.70;;
17854;SDS011;9053;53.358;6.382;2024-01-07T05:33:51;5.03;;;1.73;;
17854;SDS011;9053;53.358;6.382;2024-01-07T05:36:21;1.73;;;1.60;;
17854;SDS011;9053;53.358;6.382;2024-01-07T05:38:53;1.60;;;1.50;;
17854;SDS011;9053;53.358;6.382;2024-01-07T05:41:26;2.77;;;1.40;;
17854;SDS011;9053;53.358;6.382;2024-01-07T05:43:55;2.30;;;1.60;;
17854;SDS011;9053;53.358;6.382;2024-01-07T05:46:25;3.80;;;1.73;;
17854;SDS011;9053;53.358;6.382;2024-01-07T05:48:57;2.17;;;1.50;;
17854;SDS011;9053;53.358;6.382;2024-01-07T05:51:27;2.83;;;1.87;;
17854;SDS011;9053;53.358;6.382;2024-01-07T05:53:57;2.03;;;1.60;;
17854;SDS011;9053;53.358;6.382;2024-01-07T05:56:30;3.77;;;1.60;;
17854;SDS011;9053;53.358;6.382;2024-01-07T05:59:00;2.27;;;1.70;;
17854;SDS011;9053;53.358;6.382;2024-01-07T06:01:30;4.27;;;1.80;;
17854;SDS011;9053;53.358;6.382;2024-01-07T06:04:00;2.90;;;1.70;;
17854;SDS011;9053;53.358;6.382;2024-01-07T06:06:30;2.40;;;1.50;;
17854;SDS011;9053;53.358;6.382;2024-01-07T06:09:01;4.10;;;1.50;;
17854;SDS011;9053;53.358;6.382;2024-01-07T06:11:33;1.83;;;1.53;;
17854;SDS011;9053;53.358;6.382;2024-01-07T06:14:03;3.50;;;1.70;;
17854;SDS011;9053;53.358;6.382;2024-01-07T06:16:33;2.07;;;1.33;;
17854;SDS011;9053;53.358;6.382;2024-01-07T06:19:03;2.53;;;1.50;;
17854;SDS011;9053;53.358;6.382;2024-01-07T06:21:33;2.83;;;1.63;;
17854;SDS011;9053;53.358;6.382;2024-01-07T06:24:03;2.87;;;1.60;;
17854;SDS011;9053;53.358;6.382;2024-01-07T06:26:36;3.80;;;1.70;;
17854;SDS011;9053;53.358;6.382;2024-01-07T06:29:09;2.30;;;1.60;;
17854;SDS011;9053;53.358;6.382;2024-01-07T06:31:42;3.57;;;1.90;;
17854;SDS011;9053;53.358;6.382;2024-01-07T06:34:13;2.87;;;1.60;;
17854;SDS011;9053;53.358;6.382;2024-01-07T06:36:46;4.23;;;1.67;;
17854;SDS011;9053;53.358;6.382;2024-01-07T06:39:19;4.43;;;1.70;;
17854;SDS011;9053;53.358;6.382;2024-01-07T06:41:52;1.50;;;1.40;;
17854;SDS011;9053;53.358;6.382;2024-01-07T06:44:22;1.93;;;1.67;;
17854;SDS011;9053;53.358;6.382;2024-01-07T06:46:54;6.43;;;1.83;;
17854;SDS011;9053;53.358;6.382;2024-01-07T06:49:24;2.50;;;1.60;;
17854;SDS011;9053;53.358;6.382;2024-01-07T06:51:54;5.10;;;1.80;;
17854;SDS011;9053;53.358;6.382;2024-01-07T06:54:24;2.87;;;1.80;;
17854;SDS011;9053;53.358;6.382;2024-01-07T06:56:57;2.40;;;1.97;;
17854;SDS011;9053;53.358;6.382;2024-01-07T06:59:27;2.47;;;1.90;;
17854;SDS011;9053;53.358;6.382;2024-01-07T07:01:57;2.90;;;1.70;;
17854;SDS011;9053;53.358;6.382;2024-01-07T07:04:29;2.10;;;1.80;;
17854;SDS011;9053;53.358;6.382;2024-01-07T07:07:00;2.10;;;1.67;;
17854;SDS011;9053;53.358;6.382;2024-01-07T07:09:30;2.57;;;1.60;;
17854;SDS011;9053;53.358;6.382;2024-01-07T07:12:04;3.73;;;1.90;;
17854;SDS011;9053;53.358;6.382;2024-01-07T07:14:35;2.67;;;1.43;;
17854;SDS011;9053;53.358;6.382;2024-01-07T07:17:05;2.53;;;1.73;;
17854;SDS011;9053;53.358;6.382;2024-01-07T07:19:35;2.70;;;1.60;;
17854;SDS011;9053;53.358;6.382;2024-01-07T07:22:09;2.67;;;1.50;;
17854;SDS011;9053;53.358;6.382;2024-01-07T07:24:40;2.70;;;1.60;;
17854;SDS011;9053;53.358;6.382;2024-01-07T07:27:15;2.27;;;1.70;;
17854;SDS011;9053;53.358;6.382;2024-01-07T07:29:45;2.70;;;1.80;;
17854;SDS011;9053;53.358;6.382;2024-01-07T07:32:15;2.17;;;1.50;;
17854;SDS011;9053;53.358;6.382;2024-01-07T07:34:45;2.33;;;1.63;;
17854;SDS011;9053;53.358;6.382;2024-01-07T07:37:19;3.57;;;1.73;;
17854;SDS011;9053;53.358;6.382;2024-01-07T07:39:49;2.90;;;1.70;;
17854;SDS011;9053;53.358;6.382;2024-01-07T07:42:21;2.80;;;1.50;;
17854;SDS011;9053;53.358;6.382;2024-01-07T07:44:55;3.67;;;1.90;;
17854;SDS011;9053;53.358;6.382;2024-01-07T07:47:31;2.23;;;1.80;;
17854;SDS011;9053;53.358;6.382;2024-01-07T07:50:00;2.83;;;1.80;;
17854;SDS011;9053;53.358;6.382;2024-01-07T07:52:31;2.67;;;1.73;;
17854;SDS011;9053;53.358;6.382;2024-01-07T07:55:03;4.13;;;2.20;;
17854;SDS011;9053;53.358;6.382;2024-01-07T07:57:41;2.80;;;2.00;;
17854;SDS011;9053;53.358;6.382;2024-01-07T08:00:16;4.90;;;2.10;;
17854;SDS011;9053;53.358;6.382;2024-01-07T08:02:48;2.87;;;2.23;;
17854;SDS011;9053;53.358;6.382;2024-01-07T08:05:19;2.83;;;2.00;;
17854;SDS011;9053;53.358;6.382;2024-01-07T08:07:49;3.30;;;2.10;;
17854;SDS011;9053;53.358;6.382;2024-01-07T08:10:19;4.90;;;2.10;;
17854;SDS011;9053;53.358;6.382;2024-01-07T08:12:52;4.30;;;2.67;;
17854;SDS011;9053;53.358;6.382;2024-01-07T08:15:22;2.50;;;1.90;;
17854;SDS011;9053;53.358;6.382;2024-01-07T08:17:53;2.73;;;2.07;;
17854;SDS011;9053;53.358;6.382;2024-01-07T08:20:23;3.40;;;2.10;;
17854;SDS011;9053;53.358;6.382;2024-01-07T08:22:56;5.00;;;3.80;;
17854;SDS011;9053;53.358;6.382;2024-01-07T08:25:29;3.50;;;2.07;;
17854;SDS011;9053;53.358;6.382;2024-01-07T08:28:06;4.77;;;2.50;;
17854;SDS011;9053;53.358;6.382;2024-01-07T08:30:43;3.37;;;2.00;;
17854;SDS011;9053;53.358;6.382;2024-01-07T08:33:14;3.60;;;2.47;;
17854;SDS011;9053;53.358;6.382;2024-01-07T08:35:44;3.73;;;2.30;;
17854;SDS011;9053;53.358;6.382;2024-01-07T08:38:14;5.27;;;2.70;;
17854;SDS011;9053;53.358;6.382;2024-01-07T08:40:59;2.90;;;2.20;;
17854;SDS011;9053;53.358;6.382;2024-01-07T08:43:31;3.50;;;2.30;;
17854;SDS011;9053;53.358;6.382;2024-01-07T08:46:02;2.40;;;1.90;;
17854;SDS011;9053;53.358;6.382;2024-01-07T08:48:34;3.90;;;2.07;;
17854;SDS011;9053;53.358;6.382;2024-01-07T08:51:05;3.37;;;2.30;;
17854;SDS011;9053;53.358;6.382;2024-01-07T08:53:35;2.57;;;1.77;;
17854;SDS011;9053;53.358;6.382;2024-01-07T08:56:06;3.50;;;2.23;;
17854;SDS011;9053;53.358;6.382;2024-01-07T08:58:39;4.40;;;1.87;;
17854;SDS011;9053;53.358;6.382;2024-01-07T09:01:10;2.67;;;1.80;;
17854;SDS011;9053;53.358;6.382;2024-01-07T09:03:41;2.47;;;1.87;;
17854;SDS011;9053;53.358;6.382;2024-01-07T09:06:13;2.60;;;1.80;;
17854;SDS011;9053;53.358;6.382;2024-01-07T09:08:43;3.70;;;1.90;;
17854;SDS011;9053;53.358;6.382;2024-01-07T09:11:18;3.47;;;2.20;;
17854;SDS011;9053;53.358;6.382;2024-01-07T09:13:51;3.43;;;2.20;;
17854;SDS011;9053;53.358;6.382;2024-01-07T09:16:20;2.33;;;1.70;;
17854;SDS011;9053;53.358;6.382;2024-01-07T09:18:50;2.40;;;2.00;;
17854;SDS011;9053;53.358;6.382;2024-01-07T09:21:22;4.10;;;1.83;;
17854;SDS011;9053;53.358;6.382;2024-01-07T09:23:57;2.50;;;1.73;;
17854;SDS011;9053;53.358;6.382;2024-01-07T09:26:32;2.43;;;1.80;;
17854;SDS011;9053;53.358;6.382;2024-01-07T09:29:05;4.73;;;2.13;;
17854;SDS011;9053;53.358;6.382;2024-01-07T09:31:35;2.53;;;1.70;;
17854;SDS011;9053;53.358;6.382;2024-01-07T09:34:05;3.33;;;2.10;;
17854;SDS011;9053;53.358;6.382;2024-01-07T09:36:39;2.97;;;2.00;;
17854;SDS011;9053;53.358;6.382;2024-01-07T09:39:14;2.70;;;1.97;;
17854;SDS011;9053;53.358;6.382;2024-01-07T09:41:48;3.13;;;1.80;;
17854;SDS011;9053;53.358;6.382;2024-01-07T09:44:21;3.83;;;1.93;;
17854;SDS011;9053;53.358;6.382;2024-01-07T09:46:52;3.60;;;2.00;;
17854;SDS011;9053;53.358;6.382;2024-01-07T09:49:24;4.63;;;2.10;;
17854;SDS011;9053;53.358;6.382;2024-01-07T09:51:54;3.57;;;2.10;;
17854;SDS011;9053;53.358;6.382;2024-01-07T09:54:29;4.70;;;2.30;;
17854;SDS011;9053;53.358;6.382;2024-01-07T09:57:03;2.30;;;1.90;;
17854;SDS011;9053;53.358;6.382;2024-01-07T09:59:36;2.37;;;1.90;;
17854;SDS011;9053;53.358;6.382;2024-01-07T10:02:09;3.27;;;2.33;;
17854;SDS011;9053;53.358;6.382;2024-01-07T10:04:39;3.20;;;2.30;;
17854;SDS011;9053;53.358;6.382;2024-01-07T10:07:11;2.93;;;1.80;;
17854;SDS011;9053;53.358;6.382;2024-01-07T10:09:41;4.17;;;2.07;;
17854;SDS011;9053;53.358;6.382;2024-01-07T10:12:13;2.60;;;2.00;;
17854;SDS011;9053;53.358;6.382;2024-01-07T10:14:47;2.77;;;2.00;;
17854;SDS011;9053;53.358;6.382;2024-01-07T10:17:19;2.13;;;1.83;;
17854;SDS011;9053;53.358;6.382;2024-01-07T10:20:14;4.17;;;2.00;;
17854;SDS011;9053;53.358;6.382;2024-01-07T10:22:46;2.43;;;1.93;;
17854;SDS011;9053;53.358;6.382;2024-01-07T10:25:44;3.90;;;2.13;;
17854;SDS011;9053;53.358;6.382;2024-01-07T10:28:15;4.43;;;2.10;;
17854;SDS011;9053;53.358;6.382;2024-01-07T10:30:50;3.93;;;1.97;;
17854;SDS011;9053;53.358;6.382;2024-01-07T10:33:21;4.33;;;2.13;;
17854;SDS011;9053;53.358;6.382;2024-01-07T10:35:52;3.80;;;1.93;;
17854;SDS011;9053;53.358;6.382;2024-01-07T10:38:27;3.80;;;2.00;;
17854;SDS011;9053;53.358;6.382;2024-01-07T10:40:57;5.80;;;2.23;;
17854;SDS011;9053;53.358;6.382;2024-01-07T10:43:29;3.90;;;2.13;;
17854;SDS011;9053;53.358;6.382;2024-01-07T10:46:02;3.27;;;2.23;;
17854;SDS011;9053;53.358;6.382;2024-01-07T10:48:33;2.93;;;2.10;;
17854;SDS011;9053;53.358;6.382;2024-01-07T10:51:07;5.07;;;2.33;;
17854;SDS011;9053;53.358;6.382;2024-01-07T10:53:38;4.17;;;2.40;;
17854;SDS011;9053;53.358;6.382;2024-01-07T10:56:11;3.87;;;2.53;;
17854;SDS011;9053;53.358;6.382;2024-01-07T10:58:46;5.73;;;2.60;;
17854;SDS011;9053;53.358;6.382;2024-01-07T11:01:19;3.77;;;2.30;;
17854;SDS011;9053;53.358;6.382;2024-01-07T11:10:22;5.10;;;2.90;;
17854;SDS011;9053;53.358;6.382;2024-01-07T11:16:07;4.33;;;2.97;;
17854;SDS011;9053;53.358;6.382;2024-01-07T11:18:45;6.87;;;3.20;;
17854;SDS011;9053;53.358;6.382;2024-01-07T11:21:22;5.63;;;3.27;;
17854;SDS011;9053;53.358;6.382;2024-01-07T11:23:55;6.37;;;2.90;;
17854;SDS011;9053;53.358;6.382;2024-01-07T11:26:55;5.23;;;3.57;;
17854;SDS011;9053;53.358;6.382;2024-01-07T11:29:31;5.10;;;3.10;;
17854;SDS011;9053;53.358;6.382;2024-01-07T11:32:01;5.07;;;2.67;;
17854;SDS011;9053;53.358;6.382;2024-01-07T11:34:40;3.63;;;2.30;;
17854;SDS011;9053;53.358;6.382;2024-01-07T11:37:14;3.60;;;2.27;;
17854;SDS011;9053;53.358;6.382;2024-01-07T11:39:46;3.50;;;2.17;;
17854;SDS011;9053;53.358;6.382;2024-01-07T11:42:21;3.80;;;2.50;;
17854;SDS011;9053;53.358;6.382;2024-01-07T11:44:52;5.87;;;2.63;;
17854;SDS011;9053;53.358;6.382;2024-01-07T11:47:24;5.70;;;2.80;;
17854;SDS011;9053;53.358;6.382;2024-01-07T11:49:55;3.50;;;2.47;;
17854;SDS011;9053;53.358;6.382;2024-01-07T11:52:31;6.03;;;2.70;;
17854;SDS011;9053;53.358;6.382;2024-01-07T11:55:05;5.30;;;2.97;;
17854;SDS011;9053;53.358;6.382;2024-01-07T11:57:40;3.70;;;2.87;;
17854;SDS011;9053;53.358;6.382;2024-01-07T12:00:12;4.30;;;2.60;;
17854;SDS011;9053;53.358;6.382;2024-01-07T12:02:46;5.40;;;2.50;;
17854;SDS011;9053;53.358;6.382;2024-01-07T12:05:16;4.97;;;2.80;;
17854;SDS011;9053;53.358;6.382;2024-01-07T12:07:49;5.40;;;2.57;;
17854;SDS011;9053;53.358;6.382;2024-01-07T12:10:24;4.37;;;2.50;;
17854;SDS011;9053;53.358;6.382;2024-01-07T12:12:56;4.23;;;2.60;;
17854;SDS011;9053;53.358;6.382;2024-01-07T12:15:30;5.50;;;2.73;;
17854;SDS011;9053;53.358;6.382;2024-01-07T12:18:00;5.57;;;2.90;;
17854;SDS011;9053;53.358;6.382;2024-01-07T12:20:32;7.03;;;2.87;;
17854;SDS011;9053;53.358;6.382;2024-01-07T12:23:05;4.97;;;2.87;;
17854;SDS011;9053;53.358;6.382;2024-01-07T12:25:41;4.33;;;3.03;;
17854;SDS011;9053;53.358;6.382;2024-01-07T12:28:16;3.93;;;2.30;;
17854;SDS011;9053;53.358;6.382;2024-01-07T12:30:48;4.20;;;2.70;;
17854;SDS011;9053;53.358;6.382;2024-01-07T12:33:20;4.10;;;2.50;;
17854;SDS011;9053;53.358;6.382;2024-01-07T12:35:54;4.80;;;2.60;;
17854;SDS011;9053;53.358;6.382;2024-01-07T12:38:27;4.03;;;2.60;;
17854;SDS011;9053;53.358;6.382;2024-01-07T12:41:20;3.77;;;2.47;;
17854;SDS011;9053;53.358;6.382;2024-01-07T12:43:54;4.93;;;2.97;;
17854;SDS011;9053;53.358;6.382;2024-01-07T12:46:24;3.77;;;2.63;;
17854;SDS011;9053;53.358;6.382;2024-01-07T12:48:55;5.20;;;2.83;;
17854;SDS011;9053;53.358;6.382;2024-01-07T12:51:33;5.30;;;2.70;;
17854;SDS011;9053;53.358;6.382;2024-01-07T12:54:11;4.50;;;2.37;;
17854;SDS011;9053;53.358;6.382;2024-01-07T12:56:42;6.03;;;2.50;;
17854;SDS011;9053;53.358;6.382;2024-01-07T12:59:17;4.80;;;2.50;;
17854;SDS011;9053;53.358;6.382;2024-01-07T13:01:47;4.67;;;2.87;;
17854;SDS011;9053;53.358;6.382;2024-01-07T13:04:19;4.87;;;2.77;;
17854;SDS011;9053;53.358;6.382;2024-01-07T13:06:52;5.47;;;3.03;;
17854;SDS011;9053;53.358;6.382;2024-01-07T13:09:26;4.33;;;2.80;;
17854;SDS011;9053;53.358;6.382;2024-01-07T13:12:02;4.87;;;2.60;;
17854;SDS011;9053;53.358;6.382;2024-01-07T13:14:34;3.17;;;2.50;;
17854;SDS011;9053;53.358;6.382;2024-01-07T13:17:06;5.47;;;2.83;;
17854;SDS011;9053;53.358;6.382;2024-01-07T13:19:39;4.77;;;2.60;;
17854;SDS011;9053;53.358;6.382;2024-01-07T13:22:16;5.50;;;2.23;;
17854;SDS011;9053;53.358;6.382;2024-01-07T13:24:46;5.03;;;2.07;;
17854;SDS011;9053;53.358;6.382;2024-01-07T13:27:17;2.93;;;2.07;;
17854;SDS011;9053;53.358;6.382;2024-01-07T13:29:56;3.73;;;2.10;;
17854;SDS011;9053;53.358;6.382;2024-01-07T13:32:40;5.40;;;2.03;;
17854;SDS011;9053;53.358;6.382;2024-01-07T13:35:11;4.73;;;2.10;;
17854;SDS011;9053;53.358;6.382;2024-01-07T13:37:44;2.60;;;2.10;;
17854;SDS011;9053;53.358;6.382;2024-01-07T13:40:27;3.33;;;2.10;;
17854;SDS011;9053;53.358;6.382;2024-01-07T13:43:02;3.97;;;2.10;;
17854;SDS011;9053;53.358;6.382;2024-01-07T13:45:35;3.97;;;2.50;;
17854;SDS011;9053;53.358;6.382;2024-01-07T13:48:07;4.07;;;2.70;;
17854;SDS011;9053;53.358;6.382;2024-01-07T13:50:38;5.33;;;2.60;;
17854;SDS011;9053;53.358;6.382;2024-01-07T13:53:09;4.87;;;2.87;;
17854;SDS011;9053;53.358;6.382;2024-01-07T13:55:47;5.50;;;2.63;;
17854;SDS011;9053;53.358;6.382;2024-01-07T13:58:18;3.07;;;2.47;;
17854;SDS011;9053;53.358;6.382;2024-01-07T14:00:52;4.90;;;2.93;;
17854;SDS011;9053;53.358;6.382;2024-01-07T14:03:22;5.03;;;2.60;;
17854;SDS011;9053;53.358;6.382;2024-01-07T14:05:56;4.23;;;2.43;;
17854;SDS011;9053;53.358;6.382;2024-01-07T14:08:33;6.33;;;2.50;;
17854;SDS011;9053;53.358;6.382;2024-01-07T14:11:04;5.33;;;2.70;;
17854;SDS011;9053;53.358;6.382;2024-01-07T14:13:37;5.23;;;2.90;;
17854;SDS011;9053;53.358;6.382;2024-01-07T14:16:14;6.40;;;2.77;;
17854;SDS011;9053;53.358;6.382;2024-01-07T14:18:44;5.70;;;2.80;;
17854;SDS011;9053;53.358;6.382;2024-01-07T14:21:14;4.77;;;2.60;;
17854;SDS011;9053;53.358;6.382;2024-01-07T14:23:45;6.07;;;2.60;;
17854;SDS011;9053;53.358;6.382;2024-01-07T14:26:15;5.73;;;2.90;;
17854;SDS011;9053;53.358;6.382;2024-01-07T14:29:04;5.77;;;2.63;;
17854;SDS011;9053;53.358;6.382;2024-01-07T14:31:45;3.93;;;2.37;;
17854;SDS011;9053;53.358;6.382;2024-01-07T14:34:16;4.27;;;2.30;;
17854;SDS011;9053;53.358;6.382;2024-01-07T14:36:47;3.30;;;2.57;;
17854;SDS011;9053;53.358;6.382;2024-01-07T14:39:17;3.87;;;2.53;;
17854;SDS011;9053;53.358;6.382;2024-01-07T14:41:47;3.07;;;2.43;;
17854;SDS011;9053;53.358;6.382;2024-01-07T14:44:18;3.50;;;2.70;;
17854;SDS011;9053;53.358;6.382;2024-01-07T14:47:05;3.10;;;2.40;;
17854;SDS011;9053;53.358;6.382;2024-01-07T14:49:36;4.83;;;2.70;;
17854;SDS011;9053;53.358;6.382;2024-01-07T14:52:06;4.00;;;2.07;;
17854;SDS011;9053;53.358;6.382;2024-01-07T14:54:40;3.80;;;2.27;;
17854;SDS011;9053;53.358;6.382;2024-01-07T14:57:13;3.23;;;2.00;;
17854;SDS011;9053;53.358;6.382;2024-01-07T14:59:45;4.27;;;2.17;;
17854;SDS011;9053;53.358;6.382;2024-01-07T15:02:20;4.97;;;2.27;;
17854;SDS011;9053;53.358;6.382;2024-01-07T15:04:53;3.97;;;2.43;;
17854;SDS011;9053;53.358;6.382;2024-01-07T15:07:24;4.13;;;2.20;;
17854;SDS011;9053;53.358;6.382;2024-01-07T15:09:56;4.20;;;2.30;;
17854;SDS011;9053;53.358;6.382;2024-01-07T15:12:26;5.47;;;2.30;;
17854;SDS011;9053;53.358;6.382;2024-01-07T15:15:05;3.53;;;1.93;;
17854;SDS011;9053;53.358;6.382;2024-01-07T15:17:38;4.10;;;2.07;;
17854;SDS011;9053;53.358;6.382;2024-01-07T15:20:09;3.03;;;1.90;;
17854;SDS011;9053;53.358;6.382;2024-01-07T15:22:41;4.07;;;1.83;;
17854;SDS011;9053;53.358;6.382;2024-01-07T15:25:13;3.23;;;1.80;;
17854;SDS011;9053;53.358;6.382;2024-01-07T15:27:56;4.37;;;1.70;;
17854;SDS011;9053;53.358;6.382;2024-01-07T15:30:26;3.33;;;2.03;;
17854;SDS011;9053;53.358;6.382;2024-01-07T15:33:03;3.53;;;1.87;;
17854;SDS011;9053;53.358;6.382;2024-01-07T15:35:33;4.77;;;1.80;;
17854;SDS011;9053;53.358;6.382;2024-01-07T15:38:03;5.17;;;2.00;;
17854;SDS011;9053;53.358;6.382;2024-01-07T15:40:33;4.63;;;2.00;;